createdAt,value
2023-01-19T00:01:32.647Z,5.80
2023-01-19T00:04:05.533Z,4.10
2023-01-19T00:09:06.367Z,4.90
2023-01-19T00:11:36.404Z,4.90
2023-01-19T00:14:06.769Z,5.00
2023-01-19T00:19:09.913Z,5.00
2023-01-19T00:21:39.934Z,4.60
2023-01-19T00:26:40.584Z,5.40
2023-01-19T00:29:10.720Z,4.20
2023-01-19T00:31:41.075Z,5.00
2023-01-19T00:36:44.344Z,4.80
2023-01-19T00:39:14.650Z,5.00
2023-01-19T00:41:57.020Z,4.90
2023-01-19T00:44:27.081Z,5.40
2023-01-19T00:49:29.943Z,4.90
2023-01-19T00:52:00.030Z,4.80
2023-01-19T00:54:30.292Z,5.60
2023-01-19T00:57:00.498Z,5.40
2023-01-19T01:04:33.898Z,4.60
2023-01-19T01:09:34.478Z,5.10
2023-01-19T01:12:04.504Z,4.80
2023-01-19T01:14:35.924Z,4.50
2023-01-19T01:17:06.054Z,4.40
2023-01-19T01:19:38.973Z,4.40
2023-01-19T01:22:09.369Z,4.40
2023-01-19T01:24:39.876Z,4.40
2023-01-19T01:27:09.983Z,4.60
2023-01-19T01:29:41.367Z,4.90
2023-01-19T01:32:11.375Z,4.80
2023-01-19T01:34:44.320Z,4.30
2023-01-19T01:42:20.597Z,5.00
2023-01-19T01:44:53.113Z,4.30
2023-01-19T01:47:30.627Z,4.40
2023-01-19T01:50:11.896Z,4.50
2023-01-19T01:53:07.260Z,5.60
2023-01-19T01:58:11.373Z,4.50
2023-01-19T02:00:54.925Z,5.20
2023-01-19T02:03:30.099Z,4.60
2023-01-19T02:06:07.327Z,4.80
2023-01-19T02:08:53.974Z,5.20
2023-01-19T02:11:36.973Z,5.80
2023-01-19T02:14:07.551Z,7.00
2023-01-19T02:16:39.478Z,5.80
2023-01-19T02:19:11.727Z,5.80
2023-01-19T02:21:52.266Z,4.40
2023-01-19T02:24:25.475Z,5.90
2023-01-19T02:26:55.655Z,5.50
2023-01-19T02:29:28.203Z,6.00
2023-01-19T02:31:59.940Z,5.10
2023-01-19T02:34:30.075Z,5.50
2023-01-19T02:37:06.907Z,5.00
2023-01-19T02:39:42.853Z,5.10
2023-01-19T02:42:17.382Z,4.30
2023-01-19T02:44:51.077Z,4.10
2023-01-19T02:49:58.332Z,5.20
2023-01-19T02:52:29.729Z,5.20
2023-01-19T02:55:10.721Z,5.10
2023-01-19T03:00:32.689Z,5.40
2023-01-19T03:03:19.694Z,4.90
2023-01-19T03:05:58.254Z,5.30
2023-01-19T03:08:40.132Z,4.70
2023-01-19T03:11:14.559Z,4.30
2023-01-19T03:13:50.189Z,2.80
2023-01-19T03:16:24.720Z,3.80
2023-01-19T03:18:58.450Z,4.70
2023-01-19T03:21:30.461Z,4.40
2023-01-19T03:24:03.713Z,4.50
2023-01-19T03:26:41.637Z,4.10
2023-01-19T03:29:13.758Z,5.10
2023-01-19T03:31:47.077Z,4.80
2023-01-19T03:34:19.151Z,4.40
2023-01-19T03:36:52.836Z,5.10
2023-01-19T03:39:25.836Z,4.90
2023-01-19T03:42:03.139Z,4.90
2023-01-19T03:44:35.914Z,4.90
2023-01-19T03:47:08.811Z,4.90
2023-01-19T03:49:40.668Z,5.20
2023-01-19T03:52:10.795Z,3.30
2023-01-19T03:54:41.283Z,5.90
2023-01-19T03:57:14.127Z,5.10
2023-01-19T03:59:44.148Z,4.90
2023-01-19T04:02:15.102Z,4.90
2023-01-19T04:04:45.325Z,4.90
2023-01-19T04:07:15.364Z,4.90
2023-01-19T04:12:18.211Z,5.20
2023-01-19T04:14:48.266Z,4.00
2023-01-19T04:19:48.695Z,4.90
2023-01-19T04:22:18.725Z,4.10
2023-01-19T04:24:48.825Z,4.40
2023-01-19T04:27:21.517Z,5.00
2023-01-19T04:29:51.655Z,3.20
2023-01-19T04:32:21.955Z,5.30
2023-01-19T04:34:52.196Z,5.10
2023-01-19T04:37:22.165Z,6.10
2023-01-19T04:39:52.312Z,5.30
2023-01-19T04:42:24.939Z,4.80
2023-01-19T04:47:25.194Z,5.10
2023-01-19T04:57:28.991Z,5.20
2023-01-19T05:02:29.588Z,5.70
2023-01-19T05:05:00.284Z,5.20
2023-01-19T05:07:30.357Z,4.40
2023-01-19T05:10:00.451Z,5.40
2023-01-19T05:12:33.116Z,5.40
2023-01-19T05:15:03.473Z,6.60
2023-01-19T05:17:33.484Z,5.90
2023-01-19T05:20:03.833Z,5.60
2023-01-19T05:22:33.843Z,6.00
2023-01-19T05:25:04.456Z,6.40
2023-01-19T05:27:37.182Z,5.40
2023-01-19T05:30:07.993Z,5.20
2023-01-19T05:35:09.295Z,4.20
2023-01-19T05:37:39.298Z,5.70
2023-01-19T05:40:11.385Z,5.50
2023-01-19T05:42:43.997Z,5.40
2023-01-19T05:45:14.990Z,5.40
2023-01-19T05:47:44.972Z,4.80
2023-01-19T05:50:15.015Z,4.40
2023-01-19T05:52:45.198Z,5.30
2023-01-19T05:55:16.715Z,4.10
2023-01-19T05:57:49.393Z,5.30
2023-01-19T06:07:51.153Z,5.80
2023-01-19T06:10:21.379Z,4.70
2023-01-19T06:12:54.642Z,5.50
2023-01-19T06:15:24.822Z,6.10
2023-01-19T06:17:54.833Z,5.20
2023-01-19T06:22:55.124Z,5.20
2023-01-19T06:25:26.124Z,4.00
2023-01-19T06:27:58.731Z,4.40
2023-01-19T06:30:29.365Z,4.30
2023-01-19T06:35:30.160Z,4.80
2023-01-19T06:40:30.497Z,4.60
2023-01-19T06:43:03.428Z,4.40
2023-01-19T06:45:33.718Z,4.20
2023-01-19T06:50:34.623Z,3.50
2023-01-19T06:53:04.678Z,3.90
2023-01-19T06:55:35.847Z,4.10
2023-01-19T06:58:09.255Z,4.00
2023-01-19T07:00:42.264Z,4.00
2023-01-19T07:03:20.864Z,4.00
2023-01-19T07:05:53.810Z,2.90
2023-01-19T07:08:23.878Z,3.20
2023-01-19T07:11:25.978Z,4.40
2023-01-19T07:16:21.752Z,3.90
2023-01-19T07:18:52.702Z,3.70
2023-01-19T07:21:22.784Z,3.90
2023-01-19T07:23:53.351Z,4.20
2023-01-19T07:26:25.646Z,3.30
2023-01-19T07:28:58.287Z,4.00
2023-01-19T07:38:59.250Z,4.10
2023-01-19T07:41:29.327Z,2.50
2023-01-19T07:44:01.952Z,2.50
2023-01-19T07:46:32.024Z,4.50
2023-01-19T07:49:01.998Z,3.90
2023-01-19T07:51:32.442Z,4.20
2023-01-19T07:54:02.486Z,4.20
2023-01-19T07:56:33.966Z,4.90
2023-01-19T07:59:09.680Z,4.30
2023-01-19T08:01:39.910Z,4.50
2023-01-19T08:04:10.681Z,4.40
2023-01-19T08:06:42.788Z,4.70
2023-01-19T08:09:12.955Z,5.10
2023-01-19T08:11:43.085Z,4.40
2023-01-19T08:14:16.145Z,4.40
2023-01-19T08:16:46.248Z,4.50
2023-01-19T08:19:16.328Z,4.60
2023-01-19T08:24:22.910Z,5.40
2023-01-19T08:26:53.249Z,4.70
2023-01-19T08:29:26.174Z,5.10
2023-01-19T08:31:57.647Z,5.40
2023-01-19T08:34:27.553Z,5.30
2023-01-19T08:36:58.458Z,6.20
2023-01-19T08:42:00.825Z,4.00
2023-01-19T08:44:33.492Z,5.20
2023-01-19T08:47:03.633Z,7.00
2023-01-19T08:49:33.682Z,6.30
2023-01-19T08:52:03.777Z,6.30
2023-01-19T08:54:33.795Z,6.90
2023-01-19T08:57:04.086Z,7.20
2023-01-19T08:59:37.042Z,8.00
2023-01-19T09:02:07.513Z,8.30
2023-01-19T09:04:38.120Z,8.90
2023-01-19T09:07:08.215Z,7.90
2023-01-19T09:09:43.479Z,8.90
2023-01-19T09:12:13.780Z,8.50
2023-01-19T09:14:46.441Z,7.90
2023-01-19T09:19:48.276Z,7.10
2023-01-19T09:27:21.597Z,6.60
2023-01-19T09:29:55.096Z,6.30
2023-01-19T09:32:25.426Z,6.70
2023-01-19T09:34:56.617Z,6.00
2023-01-19T09:37:26.726Z,6.10
2023-01-19T09:39:56.815Z,6.40
2023-01-19T09:42:34.336Z,6.20
2023-01-19T09:45:12.106Z,6.50
2023-01-19T09:47:42.785Z,5.90
2023-01-19T09:50:19.417Z,6.00
2023-01-19T09:52:53.997Z,7.00
2023-01-19T09:55:30.458Z,6.20
2023-01-19T10:00:35.317Z,6.30
2023-01-19T10:03:16.448Z,6.40
2023-01-19T10:05:51.154Z,4.90
2023-01-19T10:08:28.492Z,6.40
2023-01-19T10:11:00.740Z,5.20
2023-01-19T10:13:39.369Z,6.50
2023-01-19T10:16:25.612Z,6.80
2023-01-19T10:19:00.484Z,6.00
2023-01-19T10:21:34.485Z,6.10
2023-01-19T10:24:09.705Z,6.60
2023-01-19T10:26:44.025Z,6.90
2023-01-19T10:29:24.868Z,7.00
2023-01-19T10:32:06.360Z,8.00
2023-01-19T10:34:36.928Z,7.00
2023-01-19T10:37:15.865Z,7.30
2023-01-19T10:42:19.068Z,7.30
2023-01-19T10:47:24.450Z,6.20
2023-01-19T10:49:55.249Z,6.40
2023-01-19T10:52:31.730Z,7.00
2023-01-19T10:55:03.067Z,6.70
2023-01-19T10:57:37.033Z,6.80
2023-01-19T11:00:08.455Z,7.00
2023-01-19T11:02:52.252Z,7.20
2023-01-19T11:05:27.899Z,7.10
2023-01-19T11:07:58.075Z,7.80
2023-01-19T11:10:29.798Z,7.60
2023-01-19T11:13:07.695Z,7.50
2023-01-19T11:15:43.963Z,7.10
2023-01-19T11:18:28.712Z,7.30
2023-01-19T11:21:01.170Z,8.60
2023-01-19T11:23:33.753Z,7.50
2023-01-19T11:26:08.242Z,7.20
2023-01-19T11:28:42.494Z,8.30
2023-01-19T11:31:22.428Z,6.60
2023-01-19T11:33:57.554Z,7.60
2023-01-19T11:36:29.484Z,6.90
2023-01-19T11:39:01.628Z,6.60
2023-01-19T11:41:33.567Z,7.10
2023-01-19T11:44:14.472Z,7.40
2023-01-19T11:46:49.988Z,7.70
2023-01-19T11:49:29.103Z,7.40
2023-01-19T11:52:05.970Z,7.30
2023-01-19T11:54:39.686Z,8.30
2023-01-19T11:57:17.365Z,7.40
2023-01-19T11:59:47.699Z,7.50
2023-01-19T12:02:26.972Z,7.90
2023-01-19T12:05:07.644Z,8.80
2023-01-19T12:07:39.604Z,7.80
2023-01-19T12:10:21.651Z,7.50
2023-01-19T12:12:52.091Z,7.40
2023-01-19T12:15:27.844Z,7.00
2023-01-19T12:18:02.068Z,6.90
2023-01-19T12:20:39.720Z,7.40
2023-01-19T12:23:24.700Z,6.90
2023-01-19T12:26:13.360Z,7.30
2023-01-19T12:28:46.121Z,7.80
2023-01-19T12:31:19.953Z,7.20
2023-01-19T12:33:50.733Z,7.30
2023-01-19T12:36:41.522Z,7.70
2023-01-19T12:39:19.690Z,7.20
2023-01-19T12:41:51.201Z,7.90
2023-01-19T12:44:27.776Z,7.00
2023-01-19T12:47:04.204Z,7.00
2023-01-19T12:49:44.523Z,7.70
2023-01-19T12:52:28.144Z,6.80
2023-01-19T12:55:05.551Z,7.30
2023-01-19T12:57:39.375Z,8.20
2023-01-19T13:00:30.465Z,7.10
2023-01-19T13:03:02.483Z,7.60
2023-01-19T13:05:51.562Z,7.00
2023-01-19T13:08:30.014Z,8.50
2023-01-19T13:11:26.800Z,7.40
2023-01-19T13:14:30.280Z,6.80
2023-01-19T13:17:19.234Z,7.00
2023-01-19T13:20:27.500Z,6.80
2023-01-19T13:23:28.579Z,6.40
2023-01-19T13:26:09.342Z,7.10
2023-01-19T13:28:43.567Z,5.80
2023-01-19T13:31:14.874Z,6.80
2023-01-19T13:33:52.634Z,7.00
2023-01-19T13:36:30.421Z,5.80
2023-01-19T13:39:05.761Z,6.30
2023-01-19T13:41:40.365Z,7.00
2023-01-19T13:44:15.762Z,6.90
2023-01-19T13:46:46.580Z,6.90
2023-01-19T13:49:21.975Z,7.20
2023-01-19T13:52:07.589Z,7.00
2023-01-19T13:54:40.258Z,6.10
2023-01-19T13:57:25.618Z,7.00
2023-01-19T14:00:12.071Z,7.00
2023-01-19T14:02:54.492Z,7.20
2023-01-19T14:05:27.334Z,6.50
2023-01-19T14:08:05.307Z,5.90
2023-01-19T14:10:38.269Z,6.20
2023-01-19T14:13:16.122Z,6.50
2023-01-19T14:15:47.575Z,6.60
2023-01-19T14:18:26.932Z,6.60
2023-01-19T14:20:58.907Z,6.90
2023-01-19T14:23:45.661Z,6.80
2023-01-19T14:26:46.651Z,6.80
2023-01-19T14:29:27.714Z,6.70
2023-01-19T14:32:19.589Z,7.00
2023-01-19T14:34:54.162Z,6.70
2023-01-19T14:37:27.301Z,7.20
2023-01-19T14:40:01.069Z,6.70
2023-01-19T14:42:36.267Z,6.80
2023-01-19T14:45:10.676Z,8.30
2023-01-19T14:47:42.979Z,7.10
2023-01-19T14:50:25.113Z,6.90
2023-01-19T14:52:59.298Z,6.70
2023-01-19T14:55:39.021Z,6.60
2023-01-19T14:58:16.234Z,5.70
2023-01-19T15:00:47.528Z,6.60
2023-01-19T15:05:49.800Z,6.60
2023-01-19T15:08:22.197Z,6.50
2023-01-19T15:10:52.416Z,5.70
2023-01-19T15:13:27.137Z,6.40
2023-01-19T15:18:30.313Z,6.20
2023-01-19T15:21:03.075Z,6.20
2023-01-19T15:26:04.775Z,5.50
2023-01-19T15:28:37.496Z,7.20
2023-01-19T15:31:07.773Z,6.20
2023-01-19T15:33:37.898Z,5.70
2023-01-19T15:36:08.437Z,7.30
2023-01-19T15:38:38.604Z,6.10
2023-01-19T15:41:15.296Z,6.00
2023-01-19T15:43:48.144Z,6.90
2023-01-19T15:46:20.828Z,6.30
2023-01-19T15:51:23.188Z,6.30
2023-01-19T15:53:53.537Z,5.70
2023-01-19T15:56:25.074Z,5.20
2023-01-19T15:58:58.103Z,6.40
2023-01-19T16:01:31.748Z,6.70
2023-01-19T16:04:03.333Z,6.20
2023-01-19T16:06:34.012Z,6.10
2023-01-19T16:09:04.530Z,6.50
2023-01-19T16:11:37.855Z,6.40
2023-01-19T16:14:10.550Z,5.70
2023-01-19T16:16:42.969Z,6.40
2023-01-19T16:19:13.007Z,5.70
2023-01-19T16:21:44.015Z,5.00
2023-01-19T16:24:14.036Z,6.00
2023-01-19T16:29:17.006Z,6.00
2023-01-19T16:31:47.870Z,6.20
2023-01-19T16:34:18.218Z,5.30
2023-01-19T16:36:48.339Z,6.10
2023-01-19T16:39:19.703Z,6.10
2023-01-19T16:44:23.088Z,6.20
2023-01-19T16:46:53.366Z,6.50
2023-01-19T16:49:26.823Z,6.60
2023-01-19T16:51:59.515Z,6.70
2023-01-19T16:54:31.265Z,6.10
2023-01-19T16:57:01.984Z,5.40
2023-01-19T16:59:34.819Z,4.80
2023-01-19T17:02:05.134Z,6.90
2023-01-19T17:12:07.600Z,5.70
2023-01-19T17:14:41.985Z,5.90
2023-01-19T17:17:12.219Z,5.60
2023-01-19T17:19:42.727Z,5.70
2023-01-19T17:22:13.036Z,5.10
2023-01-19T17:24:43.790Z,5.70
2023-01-19T17:27:14.044Z,5.70
2023-01-19T17:29:48.686Z,6.40
2023-01-19T17:32:21.374Z,5.40
2023-01-19T17:34:51.657Z,5.40
2023-01-19T17:39:52.093Z,5.60
2023-01-19T17:42:22.143Z,5.60
2023-01-19T17:44:54.775Z,5.70
2023-01-19T17:49:56.134Z,6.00
2023-01-19T17:52:26.224Z,5.50
2023-01-19T17:57:26.519Z,4.50
2023-01-19T17:59:59.211Z,5.60
2023-01-19T18:02:29.324Z,6.20
2023-01-19T18:07:30.909Z,3.10
2023-01-19T18:10:01.232Z,5.70
2023-01-19T18:12:31.536Z,5.70
2023-01-19T18:15:04.255Z,5.40
2023-01-19T18:17:35.102Z,5.40
2023-01-19T18:20:05.534Z,5.80
2023-01-19T18:25:06.001Z,4.70
2023-01-19T18:30:10.446Z,5.30
2023-01-19T18:32:40.790Z,5.90
2023-01-19T18:35:11.917Z,5.40
2023-01-19T18:40:14.415Z,3.70
2023-01-19T18:42:45.816Z,5.90
2023-01-19T18:45:18.819Z,5.40
2023-01-19T18:50:20.438Z,5.70
2023-01-19T18:52:51.533Z,5.30
2023-01-19T18:55:22.055Z,5.00
2023-01-19T18:57:52.204Z,3.90
2023-01-19T19:00:25.478Z,4.80
2023-01-19T19:02:57.149Z,5.10
2023-01-19T19:05:27.699Z,5.20
2023-01-19T19:07:58.280Z,5.50
2023-01-19T19:10:28.379Z,5.20
2023-01-19T19:12:58.443Z,6.60
2023-01-19T19:15:31.100Z,5.20
2023-01-19T19:20:31.433Z,5.30
2023-01-19T19:23:01.545Z,4.80
2023-01-19T19:28:01.954Z,5.50
2023-01-19T19:30:37.929Z,5.10
2023-01-19T19:33:08.155Z,5.40
2023-01-19T19:38:08.664Z,4.20
2023-01-19T19:40:38.893Z,3.90
2023-01-19T19:43:08.997Z,5.00
2023-01-19T19:45:41.665Z,4.90
2023-01-19T19:48:11.771Z,5.20
2023-01-19T19:50:41.874Z,4.60
2023-01-19T19:53:11.948Z,9.50
2023-01-19T19:55:42.104Z,4.70
2023-01-19T19:58:12.244Z,4.20
2023-01-19T20:00:46.034Z,3.90
2023-01-19T20:03:16.297Z,4.00
2023-01-19T20:05:46.507Z,5.30
2023-01-19T20:08:17.010Z,5.30
2023-01-19T20:10:47.072Z,4.40
2023-01-19T20:13:19.385Z,4.70
2023-01-19T20:15:53.807Z,4.80
2023-01-19T20:18:24.123Z,5.10
2023-01-19T20:28:25.056Z,4.20
2023-01-19T20:30:57.807Z,4.20
2023-01-19T20:35:58.262Z,4.70
2023-01-19T20:38:28.394Z,4.20
2023-01-19T20:43:28.807Z,3.90
2023-01-19T20:46:02.361Z,4.90
2023-01-19T20:48:32.574Z,4.60
2023-01-19T20:51:03.750Z,5.30
2023-01-19T20:53:34.526Z,4.90
2023-01-19T20:56:07.294Z,5.60
2023-01-19T20:58:37.464Z,5.20
2023-01-19T21:01:16.502Z,4.60
2023-01-19T21:03:46.836Z,5.60
2023-01-19T21:06:17.594Z,5.70
2023-01-19T21:11:21.272Z,6.30
2023-01-19T21:13:55.603Z,5.60
2023-01-19T21:16:30.661Z,5.60
2023-01-19T21:19:00.839Z,6.00
2023-01-19T21:21:32.007Z,5.70
2023-01-19T21:26:33.821Z,5.90
2023-01-19T21:29:05.440Z,5.70
2023-01-19T21:31:37.844Z,5.00
2023-01-19T21:34:07.915Z,5.50
2023-01-19T21:41:40.388Z,5.40
2023-01-19T21:44:10.495Z,4.00
2023-01-19T21:46:43.549Z,5.60
2023-01-19T21:49:19.941Z,5.60
2023-01-19T21:51:50.711Z,6.20
2023-01-19T21:59:21.822Z,4.80
2023-01-19T22:01:54.643Z,5.40
2023-01-19T22:04:24.771Z,5.60
2023-01-19T22:06:54.784Z,5.10
2023-01-19T22:11:55.110Z,5.00
2023-01-19T22:14:25.195Z,6.10
2023-01-19T22:16:57.990Z,5.80
2023-01-19T22:19:28.471Z,6.80
2023-01-19T22:24:28.869Z,6.10
2023-01-19T22:26:58.904Z,5.70
2023-01-19T22:29:28.980Z,5.00
2023-01-19T22:32:01.564Z,6.10
2023-01-19T22:34:31.836Z,5.30
2023-01-19T22:37:01.855Z,6.20
2023-01-19T22:39:31.871Z,5.90
2023-01-19T22:42:01.951Z,6.30
2023-01-19T22:44:32.028Z,4.70
2023-01-19T22:47:04.643Z,5.70
2023-01-19T22:49:34.717Z,5.70
2023-01-19T22:52:04.811Z,5.00
2023-01-19T22:54:35.004Z,5.50
2023-01-19T22:57:07.033Z,5.20
2023-01-19T22:59:37.100Z,5.80
2023-01-19T23:02:10.026Z,5.30
2023-01-19T23:04:40.611Z,3.70
2023-01-19T23:07:10.667Z,5.30
2023-01-19T23:09:41.028Z,6.10
2023-01-19T23:12:11.164Z,5.20
2023-01-19T23:17:14.051Z,4.80
2023-01-19T23:19:44.109Z,3.60
2023-01-19T23:22:14.270Z,5.10
2023-01-19T23:32:17.752Z,3.80
2023-01-19T23:34:47.812Z,6.20
2023-01-19T23:39:48.274Z,5.30
2023-01-19T23:42:18.584Z,3.80
2023-01-19T23:44:48.651Z,5.30
2023-01-19T23:47:21.247Z,5.10
2023-01-19T23:49:51.287Z,5.40
2023-01-19T23:54:51.636Z,3.40
2023-01-19T23:57:21.667Z,4.70
2023-01-19T23:59:51.814Z,4.70
